Time;durP1;ratioP1;P1;durP2;ratioP2;P2;SDS_P1;SDS_P2;PMS_P1;PMS_P2;Temp;Humidity;BMP_temperature;BMP_pressure;BME280_temperature;BME280_humidity;BME280_pressure;Samples;Min_cycle;Max_cycle;Signal;HPM_P1;HPM_P2
2023/04/10 00:04:57;;;;;;;57.90;32.28;;;;;;;6.47;61.37;101161.59;10307112;28;20050;-80
2023/04/10 00:10:00;;;;;;;59.58;33.97;;;;;;;6.50;61.49;101152.59;10311054;28;20043;-80
2023/04/10 00:15:03;;;;;;;64.70;33.75;;;;;;;6.45;61.36;101147.50;10315954;28;20054;-80
2023/04/10 00:20:08;;;;;;;61.05;34.42;;;;;;;6.48;61.46;101141.16;10324781;28;20073;-80
2023/04/10 00:25:11;;;;;;;57.55;32.28;;;;;;;6.45;61.47;101142.16;10314691;28;20038;-80
2023/04/10 00:30:14;;;;;;;63.85;33.72;;;;;;;6.34;61.72;101132.03;10309747;28;20117;-80
2023/04/10 00:35:19;;;;;;;60.83;32.15;;;;;;;6.22;62.25;101121.13;10312774;28;20042;-80
2023/04/10 00:40:21;;;;;;;57.10;31.55;;;;;;;6.19;62.42;101124.81;10308723;28;20100;-79
2023/04/10 00:45:24;;;;;;;58.47;31.15;;;;;;;6.16;62.36;101122.31;10299891;28;20101;-79
2023/04/10 00:50:28;;;;;;;57.08;31.65;;;;;;;6.16;62.16;101112.50;10321410;28;20074;-79
2023/04/10 00:55:31;;;;;;;54.47;30.33;;;;;;;6.09;62.33;101112.91;10300166;28;20050;-79
2023/04/10 01:00:34;;;;;;;55.47;30.52;;;;;;;6.04;62.70;101104.25;10312418;28;20138;-79
2023/04/10 01:05:45;;;;;;;55.75;30.60;;;;;;;5.94;62.75;101106.53;10322052;28;20043;-79
2023/04/10 01:10:53;;;;;;;53.80;31.67;;;;;;;5.86;63.14;101106.91;10302893;28;20031;-80
2023/04/10 01:16:01;;;;;;;59.40;33.00;;;;;;;5.87;63.35;101102.41;10321620;28;20092;-80
2023/04/10 01:21:08;;;;;;;51.65;28.58;;;;;;;5.89;63.26;101097.88;10333315;28;20133;-79
2023/04/10 01:26:12;;;;;;;54.72;28.45;;;;;;;5.83;63.28;101099.06;10300325;28;20107;-79
2023/04/10 01:31:21;;;;;;;48.38;28.13;;;;;;;5.84;63.22;101098.13;10312449;28;20564;-80
2023/04/10 01:36:28;;;;;;;50.30;28.88;;;;;;;5.82;63.43;101101.81;10313827;28;20530;-79
2023/04/10 01:41:33;;;;;;;49.70;27.58;;;;;;;5.83;63.58;101104.38;10285485;28;20050;-80
2023/04/10 01:46:38;;;;;;;43.22;26.13;;;;;;;5.88;63.54;101102.34;10325842;28;20098;-80
2023/04/10 01:51:42;;;;;;;45.65;26.98;;;;;;;5.87;63.49;101097.97;10297106;28;20038;-80
2023/04/10 01:56:47;;;;;;;45.42;26.58;;;;;;;5.83;63.63;101096.38;10325147;28;20054;-80
2023/04/10 02:01:57;;;;;;;50.78;26.67;;;;;;;5.81;63.73;101087.59;10319193;28;20505;-80
2023/04/10 02:07:03;;;;;;;48.85;27.45;;;;;;;5.73;64.19;101088.00;10317771;28;20185;-79
2023/04/10 02:12:10;;;;;;;47.85;27.48;;;;;;;5.73;64.37;101080.00;10306685;28;20042;-80
2023/04/10 02:17:18;;;;;;;48.95;27.08;;;;;;;5.76;64.58;101070.09;10325193;28;20054;-80
2023/04/10 02:22:26;;;;;;;48.03;28.15;;;;;;;5.76;64.55;101062.09;10313791;28;20048;-80
2023/04/10 02:27:30;;;;;;;45.65;26.95;;;;;;;5.62;64.68;101061.03;10307464;28;20049;-80
2023/04/10 02:32:35;;;;;;;53.15;28.17;;;;;;;5.66;64.81;101053.72;10319796;28;20066;-79
2023/04/10 02:37:38;;;;;;;49.25;26.80;;;;;;;5.45;65.33;101056.50;10324910;28;20330;-79
2023/04/10 02:42:42;;;;;;;48.58;26.63;;;;;;;5.73;64.84;101050.69;10317902;28;20039;-80
2023/04/10 02:47:47;;;;;;;49.35;26.67;;;;;;;5.69;65.09;101046.44;10309886;28;20066;-78
2023/04/10 02:52:50;;;;;;;49.95;28.08;;;;;;;5.71;65.00;101055.22;10321841;28;20479;-79
2023/04/10 02:57:53;;;;;;;47.35;26.92;;;;;;;5.78;64.90;101052.22;10308826;28;20082;-80
2023/04/10 03:02:57;;;;;;;50.35;27.00;;;;;;;5.68;64.91;101054.50;10318285;28;20050;-79
2023/04/10 03:08:06;;;;;;;49.85;26.83;;;;;;;5.75;64.90;101052.38;10338145;28;20069;-79
2023/04/10 03:13:09;;;;;;;48.50;26.63;;;;;;;5.68;64.93;101042.03;10321440;28;20046;-80
2023/04/10 03:18:14;;;;;;;46.85;26.10;;;;;;;5.62;65.31;101036.13;10323660;28;20535;-80
2023/04/10 03:23:19;;;;;;;50.35;25.60;;;;;;;5.72;65.01;101048.06;10319262;28;20043;-79
2023/04/10 03:28:22;;;;;;;44.15;26.60;;;;;;;5.75;64.73;101036.41;10316815;28;20121;-80
2023/04/10 03:33:26;;;;;;;48.45;26.23;;;;;;;5.73;64.81;101037.34;10301062;28;20544;-79
2023/04/10 03:38:30;;;;;;;43.75;25.02;;;;;;;5.68;64.95;101028.72;10310000;28;20042;-79
2023/04/10 03:43:33;;;;;;;46.53;26.10;;;;;;;5.66;64.85;101019.94;10320795;28;20473;-79
2023/04/10 03:48:40;;;;;;;46.55;26.42;;;;;;;5.66;64.84;101016.41;10314485;28;20053;-79
2023/04/10 03:53:44;;;;;;;42.60;24.50;;;;;;;5.58;65.21;101013.25;10325614;28;20038;-79
2023/04/10 03:58:50;;;;;;;44.03;24.42;;;;;;;5.55;65.34;101016.94;10318410;28;20512;-79
2023/04/10 04:03:56;;;;;;;47.65;24.98;;;;;;;5.49;65.49;101015.44;10316877;28;20134;-79
2023/04/10 04:09:19;;;;;;;51.67;24.45;;;;;;;5.40;65.86;101013.25;10309082;28;20517;-79
2023/04/10 04:14:43;;;;;;;45.85;24.30;;;;;;;5.52;65.50;101013.56;10283427;28;20596;-78
2023/04/10 04:20:01;;;;;;;44.97;23.52;;;;;;;5.50;65.61;101010.97;10334691;28;20110;-79
2023/04/10 04:25:24;;;;;;;42.92;24.45;;;;;;;5.49;65.51;101010.13;10314268;28;20053;-80
2023/04/10 04:30:49;;;;;;;46.60;22.77;;;;;;;5.48;65.38;101013.69;10328631;28;20046;-79
2023/04/10 04:35:58;;;;;;;44.50;23.58;;;;;;;5.45;65.49;101013.84;10309453;28;20398;-80
2023/04/10 04:41:14;;;;;;;45.22;24.83;;;;;;;5.39;65.57;101022.16;10327617;28;20050;-79
2023/04/10 04:46:34;;;;;;;43.60;24.05;;;;;;;5.45;65.52;101021.84;10324063;28;20054;-79
2023/04/10 04:52:10;;;;;;;45.67;24.27;;;;;;;5.53;65.43;101024.13;10592625;27;20414;-80
2023/04/10 04:57:17;;;;;;;42.33;22.52;;;;;;;5.46;65.63;101026.25;10564717;28;20040;-80
2023/04/10 05:02:40;;;;;;;43.00;22.98;;;;;;;5.56;65.38;101026.66;10544063;28;20364;-80
2023/04/10 05:08:05;;;;;;;40.40;23.35;;;;;;;5.64;65.29;101026.28;10554498;28;20032;-80
2023/04/10 05:13:19;;;;;;;41.55;23.83;;;;;;;5.69;65.29;101026.91;10542049;28;20048;-80
2023/04/10 05:18:41;;;;;;;;;;;;;;;5.82;64.72;101022.69;10543190;28;20040;-80
2023/04/10 05:24:04;;;;;;;38.28;21.00;;;;;;;5.94;64.55;101021.19;10539846;28;19943;-81
2023/04/10 05:29:27;;;;;;;44.83;23.42;;;;;;;6.04;64.54;101030.44;10550801;28;20059;-80
2023/04/10 05:35:02;;;;;;;39.92;22.98;;;;;;;6.17;64.49;101031.53;10529035;28;20112;-80
2023/04/10 05:40:11;;;;;;;40.38;21.80;;;;;;;6.30;64.19;101029.06;10536775;28;20044;-80
2023/04/10 05:45:32;;;;;;;36.25;21.25;;;;;;;6.48;63.88;101024.56;10528096;28;20044;-80
2023/04/10 05:50:53;;;;;;;36.28;21.73;;;;;;;6.68;63.74;101025.28;10551067;28;20044;-80
2023/04/10 05:56:17;;;;;;;24.17;14.50;;;;;;;7.09;64.94;101012.34;10547557;28;20526;-80
2023/04/10 06:01:37;;;;;;;29.92;15.93;;;;;;;7.43;62.49;101010.41;10531892;28;20044;-81
2023/04/10 06:06:40;;;;;;;36.78;19.13;;;;;;;7.63;60.82;101007.44;10521002;28;20091;-80
2023/04/10 06:11:46;;;;;;;31.48;20.10;;;;;;;7.70;60.32;101003.44;10532636;28;20052;-80
2023/04/10 06:16:53;;;;;;;29.95;19.30;;;;;;;7.59;59.96;101000.53;10515984;28;20044;-81
2023/04/10 06:21:55;;;;;;;30.60;18.60;;;;;;;7.97;59.71;100991.19;10513882;28;20040;-80
2023/04/10 06:27:00;;;;;;;31.98;19.40;;;;;;;8.41;58.90;100985.78;10523576;28;20036;-80
2023/04/10 06:32:03;;;;;;;30.25;19.13;;;;;;;8.46;58.38;100975.66;10512891;28;20120;-80
2023/04/10 06:37:10;;;;;;;35.05;18.38;;;;;;;8.42;58.46;100974.13;10502785;28;20048;-80
2023/04/10 06:42:14;;;;;;;29.85;17.90;;;;;;;8.55;57.98;100971.53;10522940;28;20048;-80
2023/04/10 06:47:34;;;;;;;30.48;19.00;;;;;;;8.42;58.26;100974.13;10519148;28;20049;-80
2023/04/10 06:52:37;;;;;;;29.73;18.80;;;;;;;8.50;57.99;100971.84;10520675;28;20570;-80
2023/04/10 06:57:42;;;;;;;32.58;18.60;;;;;;;8.72;58.00;100973.16;10543135;28;20124;-79
2023/04/10 07:02:45;;;;;;;28.05;18.63;;;;;;;8.83;57.43;100974.19;10558872;28;20040;-78
2023/04/10 07:07:49;;;;;;;32.78;19.38;;;;;;;9.33;56.97;100965.63;10545064;28;20094;-80
2023/04/10 07:12:53;;;;;;;27.02;17.27;;;;;;;9.72;55.88;100962.91;10553913;28;20049;-80
2023/04/10 07:17:56;;;;;;;27.83;16.65;;;;;;;9.80;55.00;100962.41;10535910;28;20079;-79
2023/04/10 07:22:59;;;;;;;26.88;17.13;;;;;;;10.08;54.49;100964.06;10552006;28;20035;-79
2023/04/10 07:28:03;;;;;;;25.65;15.60;;;;;;;10.26;53.86;100964.59;10559190;28;20548;-79
2023/04/10 07:33:06;;;;;;;25.90;16.77;;;;;;;10.52;54.05;100954.69;10551765;28;20388;-79
2023/04/10 07:38:11;;;;;;;25.40;16.60;;;;;;;10.70;53.35;100943.59;10553591;28;20032;-79
2023/04/10 07:43:16;;;;;;;23.95;16.98;;;;;;;11.23;52.45;100946.84;10547341;28;20482;-79
2023/04/10 07:48:18;;;;;;;23.30;15.93;;;;;;;11.72;51.13;100943.13;10544110;28;20040;-79
2023/04/10 07:53:21;;;;;;;19.58;14.48;;;;;;;12.02;48.76;100931.81;10557697;28;20046;-79
2023/04/10 07:58:26;;;;;;;18.45;12.63;;;;;;;12.22;47.58;100935.59;10536977;28;20545;-79
2023/04/10 08:03:29;;;;;;;18.15;12.80;;;;;;;12.85;46.63;100925.19;10551916;28;20052;-79
2023/04/10 08:08:32;;;;;;;16.95;12.32;;;;;;;13.22;45.83;100911.34;10567134;28;20043;-79
2023/04/10 08:13:36;;;;;;;16.77;12.90;;;;;;;13.45;45.17;100904.88;10557142;28;20392;-80
2023/04/10 08:18:39;;;;;;;10.82;8.10;;;;;;;13.16;41.96;100892.97;10523226;28;20105;-79
2023/04/10 08:23:42;;;;;;;10.70;7.18;;;;;;;13.32;41.68;100873.63;10553168;28;20047;-80
2023/04/10 08:28:48;;;;;;;9.77;7.25;;;;;;;13.61;40.44;100866.66;10534848;28;20093;-80
2023/04/10 08:33:51;;;;;;;11.15;8.60;;;;;;;14.79;39.26;100849.91;10549384;28;20039;-80
2023/04/10 08:38:54;;;;;;;10.60;7.85;;;;;;;15.41;38.08;100848.66;10549483;28;20535;-80
2023/04/10 08:43:59;;;;;;;10.85;7.88;;;;;;;14.11;39.70;100841.59;10546394;28;20048;-79
2023/04/10 08:49:03;;;;;;;9.65;7.78;;;;;;;13.94;40.00;100835.00;10570112;28;20063;-80
2023/04/10 08:54:07;;;;;;;12.95;7.90;;;;;;;14.25;40.26;100825.00;10525688;28;20111;-80
2023/04/10 08:59:12;;;;;;;9.38;7.32;;;;;;;14.07;39.87;100832.91;10536330;28;20043;-80
2023/04/10 09:04:15;;;;;;;10.77;9.20;;;;;;;14.23;40.37;100824.28;10559358;28;20051;-80
2023/04/10 09:09:18;;;;;;;9.40;6.95;;;;;;;13.92;39.95;100818.91;10562134;28;20060;-80
2023/04/10 09:14:24;;;;;;;10.82;8.55;;;;;;;14.23;40.01;100799.97;10546832;28;20040;-81
2023/04/10 09:19:31;;;;;;;10.85;8.88;;;;;;;14.42;39.17;100803.75;10548876;28;20070;-80
2023/04/10 09:24:37;;;;;;;11.45;9.05;;;;;;;15.04;39.42;100797.09;10527797;28;20032;-80
2023/04/10 09:29:43;;;;;;;11.07;7.45;;;;;;;15.08;38.11;100782.28;10525767;28;20095;-80
2023/04/10 09:34:53;;;;;;;9.90;7.80;;;;;;;14.57;38.48;100822.13;10549778;28;20051;-79
2023/04/10 09:39:56;;;;;;;9.77;7.88;;;;;;;15.00;38.18;100764.09;10533951;28;20494;-81
2023/04/10 09:45:01;;;;;;;12.13;9.13;;;;;;;15.04;38.53;100743.84;10539161;28;20047;-80
2023/04/10 09:50:05;;;;;;;13.18;7.88;;;;;;;15.65;37.81;100758.81;10506804;28;20396;-81
2023/04/10 09:55:16;;;;;;;10.35;7.07;;;;;;;15.32;36.88;100732.25;10555016;28;20044;-80
2023/04/10 10:00:20;;;;;;;19.30;7.85;;;;;;;15.50;36.73;100741.34;10543676;28;20040;-81
2023/04/10 10:05:26;;;;;;;7.43;6.63;;;;;;;15.74;36.18;100724.56;10551288;28;20071;-80
2023/04/10 10:10:30;;;;;;;8.13;6.70;;;;;;;15.41;36.06;100718.72;10565365;28;20046;-80
2023/04/10 10:15:41;;;;;;;9.45;7.00;;;;;;;15.59;35.86;100724.22;10553721;28;20043;-80
2023/04/10 10:20:46;;;;;;;6.73;5.73;;;;;;;15.69;35.64;100722.31;10537450;28;20514;-80
2023/04/10 10:25:50;;;;;;;7.90;6.28;;;;;;;16.61;34.63;100679.78;10542386;28;20040;-80
2023/04/10 10:30:55;;;;;;;9.05;6.97;;;;;;;16.45;34.40;100694.03;10559520;28;20450;-80
2023/04/10 10:36:00;;;;;;;6.22;5.18;;;;;;;17.61;33.69;100666.72;10548082;28;20410;-80
2023/04/10 10:41:16;;;;;;;8.38;6.53;;;;;;;16.40;34.93;100658.44;10527486;28;20044;-79
2023/04/10 10:46:29;;;;;;;6.70;6.00;;;;;;;16.15;35.06;100641.91;10539799;28;20500;-79
2023/04/10 10:51:46;;;;;;;8.38;6.18;;;;;;;16.86;34.37;100652.84;10535069;28;20058;-80
2023/04/10 10:56:49;;;;;;;7.05;6.32;;;;;;;16.79;34.35;100641.78;10526579;28;20049;-80
2023/04/10 11:02:15;;;;;;;7.13;6.05;;;;;;;17.63;33.75;100632.91;10558018;28;20036;-80
2023/04/10 11:07:18;;;;;;;7.25;5.60;;;;;;;18.33;33.20;100620.88;10578708;28;20051;-81
2023/04/10 11:12:22;;;;;;;7.43;6.47;;;;;;;18.63;31.61;100623.91;10515323;28;20040;-80
2023/04/10 11:17:52;;;;;;;6.38;5.60;;;;;;;18.93;30.88;100595.16;10530301;28;20066;-80
2023/04/10 11:23:10;;;;;;;8.20;5.82;;;;;;;17.54;32.26;100587.75;10531575;28;20506;-80
2023/04/10 11:28:34;;;;;;;6.68;5.68;;;;;;;17.82;31.79;100569.28;10553692;28;20544;-81
2023/04/10 11:33:38;;;;;;;5.90;4.85;;;;;;;17.46;31.93;100568.69;10520077;28;20421;-80
2023/04/10 11:38:41;;;;;;;6.43;5.07;;;;;;;17.01;31.76;100557.13;10552322;28;20067;-82
2023/04/10 11:43:44;;;;;;;4.68;4.28;;;;;;;16.50;32.80;100550.72;10587054;28;20394;-81
2023/04/10 11:48:52;;;;;;;3.97;3.58;;;;;;;17.33;31.99;100530.31;10583314;28;20126;-80
2023/04/10 11:54:08;;;;;;;7.65;4.40;;;;;;;16.90;32.05;100527.56;10573040;28;20043;-80
2023/04/10 11:59:13;;;;;;;4.70;3.85;;;;;;;16.88;31.82;100532.31;10587049;28;20040;-81
2023/04/10 12:04:19;;;;;;;4.85;4.35;;;;;;;17.18;32.23;100517.38;10588375;28;20433;-79
2023/04/10 12:09:23;;;;;;;11.02;4.88;;;;;;;17.57;32.25;100513.22;10580721;28;20090;-79
2023/04/10 12:14:31;;;;;;;5.57;4.47;;;;;;;17.70;31.90;100492.69;10575045;28;20058;-79
2023/04/10 12:19:38;;;;;;;6.70;4.72;;;;;;;17.75;33.06;100489.50;10585602;28;20032;-79
2023/04/10 12:24:42;;;;;;;6.78;4.60;;;;;;;17.68;32.37;100478.44;10567970;28;20074;-79
2023/04/10 12:29:46;;;;;;;5.65;4.25;;;;;;;17.86;32.22;100472.00;10569697;28;20498;-78
2023/04/10 12:34:56;;;;;;;4.80;4.40;;;;;;;18.99;32.18;100471.97;10575287;28;20055;-78
2023/04/10 12:40:05;;;;;;;5.03;4.53;;;;;;;18.45;32.00;100472.63;10585661;28;20039;-78
2023/04/10 12:45:12;;;;;;;4.82;4.32;;;;;;;18.60;31.14;100448.28;10568715;28;20066;-78
2023/04/10 12:50:19;;;;;;;6.43;4.93;;;;;;;19.36;30.47;100429.53;10579123;28;20151;-78
2023/04/10 12:55:22;;;;;;;4.68;4.07;;;;;;;18.70;31.78;100439.91;10567460;28;20065;-78
2023/04/10 13:00:25;;;;;;;4.68;3.40;;;;;;;18.26;31.36;100448.53;10580091;28;20044;-79
2023/04/10 13:05:29;;;;;;;5.35;4.43;;;;;;;18.78;31.56;100397.22;10600121;28;20039;-80
2023/04/10 13:10:32;;;;;;;4.40;3.33;;;;;;;18.67;31.84;100385.84;10597992;28;20036;-79
2023/04/10 13:15:35;;;;;;;5.22;4.03;;;;;;;18.16;31.83;100379.94;10579155;28;20051;-80
2023/04/10 13:20:40;;;;;;;4.90;4.00;;;;;;;19.10;31.52;100383.59;10594837;28;20065;-79
2023/04/10 13:25:43;;;;;;;4.30;3.72;;;;;;;19.20;30.83;100344.22;10583505;28;20498;-78
2023/04/10 13:30:46;;;;;;;3.53;2.90;;;;;;;19.89;29.39;100359.66;10594230;28;20040;-79
2023/04/10 13:35:50;;;;;;;3.40;2.65;;;;;;;19.62;28.74;100333.88;10588821;28;20218;-79
2023/04/10 13:40:53;;;;;;;3.67;2.95;;;;;;;20.07;28.79;100332.84;10600696;27;20055;-79
2023/04/10 13:45:56;;;;;;;2.95;2.75;;;;;;;19.04;29.33;100299.94;10597212;28;20047;-79
2023/04/10 13:51:00;;;;;;;3.00;2.70;;;;;;;19.08;29.59;100285.78;10593083;28;20544;-79
2023/04/10 13:56:05;;;;;;;4.70;2.70;;;;;;;19.19;29.77;100281.78;10589036;28;20083;-79
2023/04/10 14:01:08;;;;;;;2.63;2.40;;;;;;;19.52;29.64;100281.47;10593038;28;20061;-79
2023/04/10 14:06:13;;;;;;;2.45;2.25;;;;;;;18.36;29.92;100281.44;10581400;28;20043;-78
2023/04/10 14:11:16;;;;;;;2.30;2.10;;;;;;;17.13;30.72;100252.88;10582430;28;20105;-79
2023/04/10 14:16:18;;;;;;;2.50;2.30;;;;;;;17.45;31.01;100254.75;10593727;28;20039;-79
2023/04/10 14:21:23;;;;;;;3.95;2.67;;;;;;;17.40;30.45;100251.69;10575249;28;20043;-79
2023/04/10 14:26:26;;;;;;;2.15;1.95;;;;;;;17.70;30.22;100220.22;10571657;28;20055;-79
2023/04/10 14:31:29;;;;;;;3.50;2.63;;;;;;;18.26;30.03;100223.72;10572758;28;20078;-79
2023/04/10 14:36:33;;;;;;;2.38;2.17;;;;;;;18.98;29.36;100204.38;10591645;28;20486;-79
2023/04/10 14:41:36;;;;;;;3.10;2.78;;;;;;;18.93;29.82;100178.75;10592357;28;20039;-79
2023/04/10 14:46:39;;;;;;;2.60;2.40;;;;;;;19.08;30.35;100168.72;10566805;28;20074;-79
2023/04/10 14:51:47;;;;;;;2.65;2.45;;;;;;;19.36;30.16;100155.34;10574808;28;20048;-79
2023/04/10 14:56:50;;;;;;;2.80;2.60;;;;;;;18.78;30.17;100162.38;10572373;28;20051;-78
2023/04/10 15:01:53;;;;;;;2.78;2.58;;;;;;;18.01;29.93;100154.22;10587951;28;20042;-78
2023/04/10 15:06:57;;;;;;;2.28;2.08;;;;;;;17.91;31.01;100138.13;10586558;28;20465;-78
2023/04/10 15:12:01;;;;;;;3.25;2.95;;;;;;;17.04;31.68;100148.91;10589056;28;20043;-78
2023/04/10 15:17:04;;;;;;;2.28;2.08;;;;;;;17.12;30.96;100119.06;10587227;28;20074;-79
2023/04/10 15:22:08;;;;;;;2.65;2.20;;;;;;;17.31;31.32;100111.59;10593241;28;20036;-79
2023/04/10 15:27:11;;;;;;;3.00;2.80;;;;;;;16.83;32.11;100108.75;10574636;28;20509;-78
2023/04/10 15:32:13;;;;;;;2.28;1.90;;;;;;;17.03;30.80;100090.22;10588524;28;20543;-79
2023/04/10 15:37:18;;;;;;;3.20;2.30;;;;;;;16.94;31.02;100070.41;10572775;28;20575;-78
2023/04/10 15:42:20;;;;;;;3.03;2.08;;;;;;;17.15;31.63;100056.31;10605392;27;20052;-78
2023/04/10 15:47:23;;;;;;;3.08;2.75;;;;;;;17.06;31.59;100049.22;10568998;28;20036;-79
2023/04/10 15:52:30;;;;;;;4.63;4.22;;;;;;;17.21;31.71;100046.63;10574585;28;20046;-78
2023/04/10 15:57:33;;;;;;;2.63;2.42;;;;;;;17.16;31.96;100041.72;10604522;28;20039;-79
2023/04/10 16:02:36;;;;;;;2.25;2.00;;;;;;;16.86;31.66;100031.63;10600945;28;20045;-79
2023/04/10 16:07:42;;;;;;;3.03;2.60;;;;;;;17.19;31.49;100019.66;10574931;28;20051;-78
2023/04/10 16:12:45;;;;;;;2.30;2.10;;;;;;;16.71;32.04;100012.50;10596613;28;20061;-78
2023/04/10 16:17:48;;;;;;;3.42;2.80;;;;;;;16.86;32.33;100005.34;10590410;28;20051;-78
2023/04/10 16:22:53;;;;;;;2.42;2.22;;;;;;;16.61;31.97;99996.44;10589237;28;20051;-79
2023/04/10 16:27:56;;;;;;;2.30;2.10;;;;;;;16.56;31.97;100005.09;10577664;28;20383;-80
2023/04/10 16:32:59;;;;;;;2.33;2.13;;;;;;;15.98;32.53;100010.69;10577810;28;20050;-80
2023/04/10 16:38:03;;;;;;;3.42;2.60;;;;;;;16.03;32.04;100027.28;10582555;28;20088;-79
2023/04/10 16:43:06;;;;;;;3.05;2.83;;;;;;;15.84;32.43;100014.91;10568617;28;20044;-78
2023/04/10 16:48:09;;;;;;;2.55;2.25;;;;;;;15.86;32.34;99993.94;10583523;28;20059;-79
2023/04/10 16:53:13;;;;;;;3.20;2.38;;;;;;;15.78;33.10;99994.75;10583944;28;20040;-78
2023/04/10 16:58:16;;;;;;;2.78;2.47;;;;;;;15.82;33.00;99990.69;10590503;28;20066;-78
2023/04/10 17:03:19;;;;;;;2.80;2.60;;;;;;;15.71;33.19;99977.47;10587212;28;20039;-79
2023/04/10 17:08:23;;;;;;;4.57;2.78;;;;;;;15.87;33.30;99969.38;10571760;28;20052;-79
2023/04/10 17:13:26;;;;;;;3.83;3.05;;;;;;;16.02;33.03;99966.84;10588892;28;20040;-79
2023/04/10 17:18:29;;;;;;;3.13;2.83;;;;;;;16.07;33.39;99948.22;10589181;28;20036;-78
2023/04/10 17:23:33;;;;;;;4.35;2.72;;;;;;;15.71;34.09;99942.28;10567435;28;20043;-79
2023/04/10 17:28:36;;;;;;;2.70;2.50;;;;;;;15.63;33.86;99916.06;10588733;28;20039;-79
2023/04/10 17:33:40;;;;;;;3.13;2.83;;;;;;;15.75;34.23;99919.28;10585033;28;20092;-79
2023/04/10 17:38:44;;;;;;;2.70;2.50;;;;;;;15.60;34.48;99907.41;10568092;28;20502;-79
2023/04/10 17:43:48;;;;;;;3.33;2.85;;;;;;;15.77;34.55;99890.19;10564497;28;20040;-79
2023/04/10 17:48:51;;;;;;;3.65;2.55;;;;;;;15.63;34.67;99885.41;10569950;28;20039;-80
2023/04/10 17:53:55;;;;;;;3.88;2.60;;;;;;;15.50;34.62;99872.41;10582028;28;20077;-79
2023/04/10 17:58:59;;;;;;;3.83;3.35;;;;;;;15.40;35.02;99855.50;10589713;28;20048;-78
2023/04/10 18:04:03;;;;;;;3.58;3.10;;;;;;;15.46;35.33;99844.81;10576838;28;20158;-79
2023/04/10 18:09:07;;;;;;;3.63;3.00;;;;;;;15.24;35.21;99851.72;10590152;28;20085;-77
2023/04/10 18:14:10;;;;;;;3.83;2.78;;;;;;;15.23;35.44;99832.97;10577908;28;20039;-79
2023/04/10 18:19:13;;;;;;;3.58;3.10;;;;;;;15.23;35.53;99828.38;10570082;28;20073;-78
2023/04/10 18:24:17;;;;;;;3.22;2.80;;;;;;;15.24;35.67;99827.38;10587425;28;20032;-77
2023/04/10 18:29:21;;;;;;;3.03;2.75;;;;;;;15.14;35.71;99836.66;10570928;28;20635;-78
2023/04/10 18:34:24;;;;;;;4.22;3.25;;;;;;;15.30;35.74;99825.84;10585801;28;20405;-78
2023/04/10 18:39:28;;;;;;;5.13;2.53;;;;;;;15.16;35.85;99821.09;10590065;28;20044;-77
2023/04/10 18:44:31;;;;;;;3.70;3.08;;;;;;;15.24;36.03;99829.22;10586303;28;20063;-78
2023/04/10 18:49:36;;;;;;;2.88;2.58;;;;;;;15.27;35.94;99824.31;10587645;28;20050;-78
2023/04/10 18:54:40;;;;;;;3.90;3.25;;;;;;;15.19;36.04;99818.06;10585939;28;20032;-77
2023/04/10 18:59:43;;;;;;;2.75;2.55;;;;;;;15.25;37.48;99828.22;10588234;28;20395;-77
2023/04/10 19:04:46;;;;;;;3.35;2.95;;;;;;;15.11;37.77;99823.47;10598551;28;20078;-78
2023/04/10 19:09:51;;;;;;;3.30;3.00;;;;;;;14.72;42.64;99827.63;10596364;28;20062;-78
2023/04/10 19:14:54;;;;;;;3.25;2.95;;;;;;;14.44;39.99;99818.06;10596703;28;20035;-78
2023/04/10 19:19:59;;;;;;;2.90;2.38;;;;;;;14.41;40.65;99823.81;10583690;28;20058;-78
2023/04/10 19:25:03;;;;;;;2.78;2.58;;;;;;;14.27;40.71;99833.34;10596238;28;20065;-77
2023/04/10 19:30:07;;;;;;;3.15;2.85;;;;;;;14.09;39.27;99849.63;10595907;28;20040;-78
2023/04/10 19:35:10;;;;;;;2.30;1.80;;;;;;;13.53;39.94;99849.06;10589317;28;20035;-78
2023/04/10 19:40:15;;;;;;;3.55;3.00;;;;;;;13.88;40.08;99841.91;10590605;28;20118;-79
2023/04/10 19:45:19;;;;;;;3.65;2.72;;;;;;;14.07;39.00;99832.72;10570638;28;20055;-79
2023/04/10 19:50:22;;;;;;;3.17;1.77;;;;;;;13.00;43.18;99848.06;10590756;28;20109;-78
2023/04/10 19:55:27;;;;;;;4.63;2.25;;;;;;;12.83;48.45;99856.97;10602523;28;20044;-78
2023/04/10 20:00:30;;;;;;;5.90;1.73;;;;;;;11.70;53.32;99884.88;10589330;28;21321;-79
2023/04/10 20:05:33;;;;;;;6.93;2.47;;;;;;;9.84;66.99;99908.66;10599012;28;20118;-80
2023/04/10 20:10:37;;;;;;;5.50;2.63;;;;;;;8.76;77.72;99901.50;10599113;28;20039;-82
2023/04/10 20:15:40;;;;;;;6.03;3.10;;;;;;;9.36;79.25;99861.75;10569046;28;20071;-82
2023/04/10 20:20:43;;;;;;;5.40;3.33;;;;;;;9.25;77.13;99843.03;10589757;28;20054;-82
2023/04/10 20:25:47;;;;;;;5.38;3.70;;;;;;;9.40;77.09;99835.53;10594257;28;20043;-83
2023/04/10 20:30:50;;;;;;;7.28;4.47;;;;;;;9.72;78.35;99822.06;10594980;28;20051;-79
2023/04/10 20:35:53;;;;;;;8.52;3.90;;;;;;;9.73;76.94;99802.28;10589641;28;20039;-79
2023/04/10 20:40:57;;;;;;;8.60;3.95;;;;;;;10.02;77.43;99782.84;10584465;28;20050;-81
2023/04/10 20:46:02;;;;;;;6.05;3.83;;;;;;;10.07;77.20;99778.75;10585572;28;20044;-79
2023/04/10 20:51:06;;;;;;;6.18;4.00;;;;;;;10.15;77.34;99762.81;10565931;28;20139;-79
2023/04/10 20:56:10;;;;;;;7.75;4.25;;;;;;;10.12;79.04;99773.84;10585946;28;20040;-80
2023/04/10 21:01:13;;;;;;;4.97;3.65;;;;;;;9.72;79.11;99758.53;10565702;28;20051;-80
2023/04/10 21:06:17;;;;;;;8.63;3.42;;;;;;;9.71;80.08;99764.03;10581896;28;20046;-79
2023/04/10 21:11:21;;;;;;;4.75;3.28;;;;;;;9.67;78.21;99771.47;10582242;28;20063;-79
2023/04/10 21:16:24;;;;;;;4.97;3.60;;;;;;;9.56;75.93;99762.69;10557443;28;20051;-78
2023/04/10 21:21:27;;;;;;;4.88;4.03;;;;;;;10.04;77.28;99772.78;10572114;28;20399;-78
2023/04/10 21:26:31;;;;;;;5.15;4.00;;;;;;;9.76;77.94;99798.47;10581894;28;20036;-78
2023/04/10 21:31:34;;;;;;;9.02;4.80;;;;;;;9.10;81.25;99796.94;10586247;28;20055;-80
2023/04/10 21:36:38;;;;;;;8.40;5.40;;;;;;;9.15;81.93;99807.28;10590459;28;20059;-78
2023/04/10 21:41:43;;;;;;;9.88;5.60;;;;;;;9.03;82.57;99801.97;10587864;28;20113;-78
2023/04/10 21:46:46;;;;;;;7.20;4.85;;;;;;;8.96;82.41;99810.63;10572750;28;20048;-80
2023/04/10 21:51:49;;;;;;;8.38;5.60;;;;;;;9.22;82.08;99790.56;10590846;28;20040;-79
2023/04/10 21:56:53;;;;;;;8.40;4.93;;;;;;;9.25;81.53;99792.13;10592184;28;20420;-79
2023/04/10 22:01:56;;;;;;;7.18;5.07;;;;;;;9.36;81.34;99777.81;10594562;28;20061;-79
2023/04/10 22:06:59;;;;;;;9.32;5.60;;;;;;;9.44;80.92;99780.69;10588478;28;20032;-78
2023/04/10 22:12:03;;;;;;;7.97;5.28;;;;;;;9.48;81.51;99771.38;10587307;28;20043;-78
2023/04/10 22:17:06;;;;;;;6.75;3.67;;;;;;;8.97;81.79;99756.94;10570261;28;20039;-79
2023/04/10 22:22:09;;;;;;;4.55;3.55;;;;;;;9.09;80.71;99756.88;10588155;28;20042;-79
2023/04/10 22:27:14;;;;;;;8.05;3.20;;;;;;;8.89;81.01;99783.53;10588972;28;20081;-78
2023/04/10 22:32:17;;;;;;;4.00;2.80;;;;;;;8.85;81.66;99771.34;10568485;28;20039;-79
2023/04/10 22:37:19;;;;;;;4.03;2.47;;;;;;;8.91;82.68;99749.41;10586555;28;20077;-79
2023/04/10 22:42:24;;;;;;;6.88;2.55;;;;;;;8.52;81.94;99749.06;10587713;28;20505;-80
2023/04/10 22:47:26;;;;;;;3.58;2.10;;;;;;;8.70;81.20;99724.47;10569176;28;20502;-80
2023/04/10 22:52:29;;;;;;;2.70;1.80;;;;;;;8.74;81.01;99717.84;10587208;28;20088;-79
2023/04/10 22:57:34;;;;;;;3.10;2.20;;;;;;;8.67;81.84;99701.47;10566973;28;20050;-78
2023/04/10 23:02:36;;;;;;;1.90;1.65;;;;;;;8.43;84.71;99727.56;10587158;28;20043;-80
2023/04/10 23:07:39;;;;;;;4.18;2.63;;;;;;;8.45;84.10;99702.38;10578573;28;20103;-79
2023/04/10 23:12:44;;;;;;;5.70;2.22;;;;;;;8.36;82.67;99700.44;10556306;28;20066;-78
2023/04/10 23:17:47;;;;;;;3.65;2.60;;;;;;;8.42;83.18;99712.47;10586346;28;20035;-78
2023/04/10 23:22:49;;;;;;;3.10;2.53;;;;;;;8.42;83.46;99724.03;10572762;28;20044;-78
2023/04/10 23:27:54;;;;;;;3.83;2.70;;;;;;;8.48;83.07;99655.81;10584098;28;20059;-78